Time;durP1;ratioP1;P1;durP2;ratioP2;P2;SDS_P1;SDS_P2;PMS_P1;PMS_P2;Temp;Humidity;BMP_temperature;BMP_pressure;BME280_temperature;BME280_humidity;BME280_pressure;Samples;Min_cycle;Max_cycle;Signal;HPM_P1;HPM_P2
2024/02/05 00:00:44;;;;;;;10.15;6.80;;;10.10;99.90;;;;;;5053697;28;20444;-65
2024/02/05 00:03:11;;;;;;;11.43;7.43;;;10.10;99.90;;;;;;5052965;28;20217;-64
2024/02/05 00:05:37;;;;;;;11.70;6.43;;;10.10;99.90;;;;;;5053904;28;20444;-64
2024/02/05 00:08:07;;;;;;;8.00;6.83;;;10.10;99.90;;;;;;5053417;28;20436;-64
2024/02/05 00:10:34;;;;;;;6.63;5.97;;;10.10;99.90;;;;;;5053514;28;20531;-64
2024/02/05 00:13:01;;;;;;;6.90;5.63;;;10.00;99.90;;;;;;5053380;28;20457;-64
2024/02/05 00:15:28;;;;;;;9.38;5.88;;;10.10;99.90;;;;;;5053499;28;20444;-64
2024/02/05 00:17:54;;;;;;;7.80;7.00;;;10.00;99.90;;;;;;5053337;28;20304;-64
2024/02/05 00:20:21;;;;;;;7.20;6.10;;;10.10;99.90;;;;;;5053190;28;20447;-64
2024/02/05 00:22:48;;;;;;;7.63;6.50;;;10.00;99.90;;;;;;5053292;28;20456;-64
2024/02/05 00:25:16;;;;;;;9.98;6.95;;;10.00;99.90;;;;;;5053370;28;20903;-64
2024/02/05 00:27:43;;;;;;;10.80;5.28;;;10.00;99.90;;;;;;5053605;28;20206;-64
2024/02/05 00:30:10;;;;;;;8.73;6.03;;;10.00;99.90;;;;;;5057498;28;20263;-64
2024/02/05 00:32:37;;;;;;;10.57;5.50;;;10.00;99.90;;;;;;5058117;28;20552;-64
2024/02/05 00:35:05;;;;;;;6.73;4.80;;;10.00;99.90;;;;;;5058698;28;20863;-65
2024/02/05 00:37:32;;;;;;;9.10;5.60;;;10.00;99.90;;;;;;5057773;28;20592;-64
2024/02/05 00:39:59;;;;;;;9.40;6.37;;;10.00;99.90;;;;;;5057725;28;20444;-64
2024/02/05 00:42:28;;;;;;;14.20;6.77;;;10.00;99.90;;;;;;5057060;28;20830;-64
2024/02/05 00:44:54;;;;;;;8.73;3.70;;;10.00;99.90;;;;;;5057368;28;20494;-65
2024/02/05 00:47:21;;;;;;;5.23;4.57;;;10.00;99.90;;;;;;5056924;28;20824;-64
2024/02/05 00:49:48;;;;;;;6.23;5.60;;;10.00;99.90;;;;;;5057550;28;20451;-63
2024/02/05 00:52:15;;;;;;;5.97;4.40;;;10.00;99.90;;;;;;5057746;28;20467;-64
2024/02/05 00:54:42;;;;;;;8.83;4.97;;;10.00;99.90;;;;;;5058689;28;20471;-65
2024/02/05 00:57:08;;;;;;;4.95;4.40;;;10.00;99.90;;;;;;5058928;28;20444;-65
2024/02/05 00:59:37;;;;;;;6.10;5.05;;;10.00;99.90;;;;;;5059310;28;20208;-64
2024/02/05 01:02:06;;;;;;;5.97;4.80;;;10.00;99.90;;;;;;5058047;28;20252;-64
2024/02/05 01:04:34;;;;;;;5.73;5.23;;;10.00;99.90;;;;;;5057171;28;20314;-64
2024/02/05 01:07:01;;;;;;;7.03;4.97;;;9.90;99.90;;;;;;5056658;28;20440;-64
2024/02/05 01:09:28;;;;;;;5.03;4.50;;;9.90;99.90;;;;;;5056572;28;20436;-64
2024/02/05 01:11:54;;;;;;;5.10;4.00;;;9.90;99.90;;;;;;5057091;28;20518;-64
2024/02/05 01:14:21;;;;;;;4.80;3.53;;;9.90;99.90;;;;;;5056921;28;20577;-64
2024/02/05 01:16:49;;;;;;;5.13;4.30;;;9.90;99.90;;;;;;5056435;28;20459;-64
2024/02/05 01:19:16;;;;;;;5.03;4.00;;;9.90;99.90;;;;;;5056396;28;20594;-65
2024/02/05 01:21:43;;;;;;;4.70;4.10;;;9.90;99.90;;;;;;5056277;28;20452;-63
2024/02/05 01:24:09;;;;;;;5.23;4.10;;;9.90;99.90;;;;;;5057459;28;20201;-65
2024/02/05 01:26:36;;;;;;;6.07;4.20;;;9.90;99.90;;;;;;5057041;28;20930;-65
2024/02/05 01:29:03;;;;;;;6.73;4.67;;;9.90;99.90;;;;;;5056680;28;20467;-63
2024/02/05 01:31:29;;;;;;;5.40;4.10;;;9.90;99.90;;;;;;5057048;28;20464;-64
2024/02/05 01:33:57;;;;;;;3.95;3.55;;;9.90;99.90;;;;;;5055689;28;20451;-64
2024/02/05 01:36:24;;;;;;;8.05;5.90;;;9.90;99.90;;;;;;5056354;28;20209;-64
2024/02/05 01:38:51;;;;;;;6.68;4.43;;;9.90;99.90;;;;;;5060868;28;20304;-64
2024/02/05 01:41:18;;;;;;;4.90;4.45;;;9.90;99.90;;;;;;5064617;28;20228;-65
2024/02/05 01:43:46;;;;;;;5.23;4.13;;;9.90;99.90;;;;;;5058943;28;20201;-64
2024/02/05 01:46:16;;;;;;;5.37;4.80;;;9.90;99.90;;;;;;5058459;28;20480;-65
2024/02/05 01:48:44;;;;;;;8.32;4.32;;;9.90;99.90;;;;;;5056747;28;20494;-65
2024/02/05 01:51:14;;;;;;;6.53;5.68;;;9.90;99.90;;;;;;5056573;28;20225;-65
2024/02/05 01:53:41;;;;;;;9.90;5.17;;;9.90;99.90;;;;;;5056411;28;20212;-65
2024/02/05 01:56:09;;;;;;;7.13;4.88;;;9.90;99.90;;;;;;5055799;28;20444;-64
2024/02/05 01:58:37;;;;;;;7.03;4.33;;;9.90;99.90;;;;;;5058922;28;20226;-64
2024/02/05 02:01:03;;;;;;;6.00;5.17;;;9.90;99.90;;;;;;5060930;28;20472;-64
2024/02/05 02:03:30;;;;;;;7.53;5.17;;;9.90;99.90;;;;;;5060481;28;20868;-65
2024/02/05 02:05:58;;;;;;;7.03;5.40;;;9.90;99.90;;;;;;5056569;28;20448;-64
2024/02/05 02:08:27;;;;;;;8.43;6.70;;;9.90;99.90;;;;;;5056364;28;20531;-64
2024/02/05 02:10:54;;;;;;;9.23;5.50;;;9.90;99.90;;;;;;5055574;28;20443;-65
2024/02/05 02:13:21;;;;;;;8.23;6.03;;;9.90;99.90;;;;;;5055680;28;20436;-64
2024/02/05 02:15:49;;;;;;;9.57;5.90;;;9.90;99.90;;;;;;5056031;28;20202;-64
2024/02/05 02:18:18;;;;;;;8.40;6.57;;;9.90;99.90;;;;;;5055145;28;20472;-65
2024/02/05 02:20:47;;;;;;;19.97;8.13;;;9.90;99.90;;;;;;5055357;28;20443;-65
2024/02/05 02:23:19;;;;;;;12.70;7.13;;;9.90;99.90;;;;;;5055439;28;20836;-64
2024/02/05 02:25:50;;;;;;;14.07;6.95;;;9.90;99.90;;;;;;5055237;28;20421;-64
2024/02/05 02:28:16;;;;;;;13.20;6.37;;;9.90;99.90;;;;;;5055647;28;20197;-64
2024/02/05 02:30:43;;;;;;;12.00;6.50;;;9.90;99.90;;;;;;5054914;28;20448;-63
2024/02/05 02:33:18;;;;;;;14.07;7.03;;;9.90;99.90;;;;;;5054507;28;20209;-65
2024/02/05 02:35:51;;;;;;;10.60;7.63;;;9.90;99.90;;;;;;5055705;28;20435;-64
2024/02/05 02:38:21;;;;;;;13.17;8.10;;;9.80;99.90;;;;;;5055032;28;20210;-63
2024/02/05 02:40:54;;;;;;;15.70;7.33;;;9.90;99.90;;;;;;5055098;28;20471;-65
2024/02/05 02:43:22;;;;;;;12.95;6.70;;;9.90;99.90;;;;;;5055425;28;20447;-63
2024/02/05 02:45:52;;;;;;;12.40;7.60;;;9.90;99.90;;;;;;5055208;28;20198;-64
2024/02/05 02:48:18;;;;;;;12.50;6.77;;;9.90;99.90;;;;;;5055068;28;20445;-65
2024/02/05 02:50:45;;;;;;;11.17;7.80;;;9.90;99.90;;;;;;5054567;28;20476;-65
2024/02/05 02:53:12;;;;;;;12.57;7.90;;;9.80;99.90;;;;;;5053789;28;20448;-65
2024/02/05 02:55:40;;;;;;;9.20;6.43;;;9.80;99.90;;;;;;5054147;28;20206;-64
2024/02/05 02:58:07;;;;;;;11.70;7.97;;;9.80;99.90;;;;;;5054520;28;20502;-65
2024/02/05 03:00:35;;;;;;;10.60;7.20;;;9.80;99.90;;;;;;5054582;28;20440;-65
2024/02/05 03:03:02;;;;;;;9.27;6.03;;;9.80;99.90;;;;;;5054912;28;20480;-65
2024/02/05 03:05:29;;;;;;;13.90;8.20;;;9.80;99.90;;;;;;5054484;28;20202;-64
2024/02/05 03:07:55;;;;;;;14.80;7.93;;;9.80;99.90;;;;;;5054214;28;20984;-64
2024/02/05 03:10:22;;;;;;;10.17;6.67;;;9.80;99.90;;;;;;5054337;28;20452;-64
2024/02/05 03:12:50;;;;;;;12.03;6.43;;;9.80;99.90;;;;;;5053587;28;21001;-64
2024/02/05 03:15:17;;;;;;;11.67;7.80;;;9.80;99.90;;;;;;5054590;28;20448;-65
2024/02/05 03:17:44;;;;;;;12.27;7.57;;;9.80;99.90;;;;;;5055313;28;20483;-65
2024/02/05 03:20:31;;;;;;;15.90;7.10;;;9.80;99.90;;;;;;5054000;28;20855;-64
2024/02/05 03:22:58;;;;;;;13.05;7.80;;;9.80;99.90;;;;;;5054001;28;20456;-64
2024/02/05 03:25:25;;;;;;;8.63;5.82;;;9.80;99.90;;;;;;5053687;28;20205;-64
2024/02/05 03:27:53;;;;;;;12.50;5.90;;;9.80;99.90;;;;;;5054173;28;20202;-64
2024/02/05 03:30:19;;;;;;;11.55;7.13;;;9.80;99.90;;;;;;5054398;28;20436;-64
2024/02/05 03:32:46;;;;;;;14.18;7.50;;;9.70;99.90;;;;;;5053558;28;20225;-63
2024/02/05 03:35:15;;;;;;;16.70;8.38;;;9.70;99.90;;;;;;5053284;28;20643;-64
2024/02/05 03:37:42;;;;;;;15.40;7.60;;;9.70;99.90;;;;;;5053869;28;20221;-63
2024/02/05 03:40:10;;;;;;;13.23;6.70;;;9.70;99.90;;;;;;5053427;28;20221;-65
2024/02/05 03:42:37;;;;;;;15.07;8.10;;;9.70;99.90;;;;;;5053976;28;20460;-64
2024/02/05 03:45:06;;;;;;;17.73;8.47;;;9.70;99.90;;;;;;5054041;28;20198;-65
2024/02/05 03:47:33;;;;;;;11.63;6.93;;;9.70;99.90;;;;;;5053724;28;20459;-64
2024/02/05 03:50:00;;;;;;;10.57;7.28;;;9.70;99.90;;;;;;5053793;28;20229;-64
2024/02/05 03:52:27;;;;;;;10.27;6.97;;;9.70;99.90;;;;;;5053237;28;20711;-65
2024/02/05 03:54:54;;;;;;;15.55;8.07;;;9.70;99.90;;;;;;5053022;28;20448;-64
2024/02/05 03:57:20;;;;;;;18.77;8.37;;;9.70;99.90;;;;;;5053973;28;20581;-64
2024/02/05 03:59:47;;;;;;;19.08;7.88;;;9.70;99.90;;;;;;5055901;28;20476;-65
2024/02/05 04:02:15;;;;;;;15.10;8.30;;;9.70;99.90;;;;;;5056985;28;20613;-64
2024/02/05 04:04:42;;;;;;;16.63;8.50;;;9.70;99.90;;;;;;5054028;28;20436;-64
2024/02/05 04:07:08;;;;;;;14.17;7.70;;;9.70;99.90;;;;;;5053791;28;20440;-64
2024/02/05 04:13:12;;;;;;;14.70;7.43;;;9.60;99.90;;;;;;5091250;28;20319;-63
2024/02/05 04:15:39;;;;;;;17.38;7.90;;;9.60;99.90;;;;;;5090755;28;20964;-63
2024/02/05 04:18:05;;;;;;;14.25;7.75;;;9.60;99.90;;;;;;5090777;28;20204;-63
2024/02/05 04:20:32;;;;;;;14.80;8.13;;;9.60;99.90;;;;;;5090531;28;20199;-63
2024/02/05 04:22:58;;;;;;;19.90;9.77;;;9.60;99.90;;;;;;5090994;28;20216;-63
2024/02/05 04:25:25;;;;;;;19.53;8.67;;;9.60;99.90;;;;;;5091263;28;20203;-62
2024/02/05 04:27:52;;;;;;;17.30;8.97;;;9.60;99.90;;;;;;5091913;28;20447;-62
2024/02/05 04:30:28;;;;;;;14.45;6.13;;;9.60;99.90;;;;;;5090989;28;20438;-63
2024/02/05 04:32:55;;;;;;;22.87;9.07;;;9.60;99.90;;;;;;5090652;28;20230;-63
2024/02/05 04:35:22;;;;;;;13.25;8.10;;;9.60;99.90;;;;;;5090579;28;20444;-64
2024/02/05 04:37:48;;;;;;;11.60;8.10;;;9.60;99.90;;;;;;5090485;28;20208;-63
2024/02/05 04:40:16;;;;;;;15.03;8.77;;;9.60;99.90;;;;;;5090132;28;20434;-63
2024/02/05 04:42:42;;;;;;;22.40;8.70;;;9.60;99.90;;;;;;5090239;28;20463;-63
2024/02/05 04:45:10;;;;;;;25.38;8.05;;;9.60;99.90;;;;;;5090236;28;20438;-63
2024/02/05 04:47:38;;;;;;;18.05;8.65;;;9.60;99.90;;;;;;5090887;28;20200;-63
2024/02/05 04:50:06;;;;;;;19.93;9.37;;;9.60;99.90;;;;;;5090227;28;20197;-63
2024/02/05 04:52:32;;;;;;;29.63;9.33;;;9.60;99.90;;;;;;5089814;28;20578;-63
2024/02/05 04:54:59;;;;;;;14.73;7.30;;;9.60;99.90;;;;;;5089842;28;20443;-63
2024/02/05 04:57:26;;;;;;;22.83;7.68;;;9.60;99.90;;;;;;5089672;28;20200;-63
2024/02/05 04:59:52;;;;;;;21.20;8.43;;;9.60;99.90;;;;;;5089800;28;20205;-64
2024/02/05 05:02:19;;;;;;;18.40;8.43;;;9.60;99.90;;;;;;5090511;28;20216;-63
2024/02/05 05:04:47;;;;;;;23.15;8.93;;;9.50;99.90;;;;;;5089641;28;20807;-63
2024/02/05 05:07:15;;;;;;;20.27;9.20;;;9.60;99.90;;;;;;5089923;28;20209;-63
2024/02/05 05:09:42;;;;;;;17.10;8.10;;;9.60;99.90;;;;;;5089859;28;20572;-63
2024/02/05 05:12:08;;;;;;;22.47;7.53;;;9.60;99.90;;;;;;5089337;28;20486;-63
2024/02/05 05:14:37;;;;;;;14.60;6.70;;;9.70;99.90;;;;;;5089648;28;20442;-63
2024/02/05 05:17:04;;;;;;;22.33;7.40;;;9.70;99.90;;;;;;5089835;28;20443;-63
2024/02/05 05:19:31;;;;;;;23.23;7.80;;;9.70;99.90;;;;;;5089776;28;20439;-63
2024/02/05 05:21:59;;;;;;;17.23;7.90;;;9.70;99.90;;;;;;5089453;28;20740;-63
2024/02/05 05:24:25;;;;;;;14.80;6.73;;;9.70;99.90;;;;;;5076320;28;20205;-63
2024/02/05 05:26:52;;;;;;;15.60;6.40;;;9.60;99.90;;;;;;5075891;28;20442;-63
2024/02/05 05:29:20;;;;;;;20.03;7.77;;;9.60;99.90;;;;;;5075654;28;20666;-64
2024/02/05 05:31:46;;;;;;;16.00;6.00;;;9.60;99.90;;;;;;5075884;28;20565;-63
2024/02/05 05:34:13;;;;;;;20.07;6.07;;;9.70;99.90;;;;;;5076190;28;20204;-63
2024/02/05 05:36:40;;;;;;;7.20;4.03;;;9.70;99.90;;;;;;5075947;28;20450;-63
2024/02/05 05:39:08;;;;;;;15.60;6.03;;;9.70;99.90;;;;;;5075677;28;20841;-65
2024/02/05 05:41:36;;;;;;;19.57;6.47;;;9.70;99.90;;;;;;5075670;28;20487;-64
2024/02/05 05:44:03;;;;;;;16.10;6.53;;;9.80;99.90;;;;;;5075733;28;20439;-64
2024/02/05 05:46:29;;;;;;;12.57;6.10;;;9.80;99.90;;;;;;5075285;28;20995;-62
2024/02/05 05:48:56;;;;;;;10.18;5.28;;;9.80;99.90;;;;;;5075419;28;20454;-64
2024/02/05 05:51:23;;;;;;;20.17;6.07;;;9.80;99.90;;;;;;5075361;28;20228;-65
2024/02/05 05:53:50;;;;;;;17.97;7.20;;;9.80;99.90;;;;;;5075531;28;20458;-63
2024/02/05 05:56:18;;;;;;;17.40;6.50;;;9.80;99.90;;;;;;5075505;28;20455;-63
2024/02/05 05:58:45;;;;;;;23.67;7.23;;;9.90;99.90;;;;;;5075320;28;20447;-63
2024/02/05 06:01:12;;;;;;;16.37;4.93;;;9.90;99.90;;;;;;5075196;28;20465;-63
2024/02/05 06:03:41;;;;;;;18.65;6.22;;;9.90;99.90;;;;;;5075218;28;20440;-64
2024/02/05 06:06:08;;;;;;;26.42;6.53;;;9.90;99.90;;;;;;5076094;28;20228;-63
2024/02/05 06:08:34;;;;;;;19.47;5.57;;;9.90;99.90;;;;;;5075499;28;20196;-64
2024/02/05 06:11:01;;;;;;;19.55;6.15;;;9.90;99.90;;;;;;5075082;28;20516;-64
2024/02/05 06:13:31;;;;;;;14.18;5.82;;;9.90;99.90;;;;;;5075010;28;20569;-64
2024/02/05 06:15:57;;;;;;;18.77;7.30;;;9.90;99.90;;;;;;5075041;28;20201;-62
2024/02/05 06:18:24;;;;;;;15.30;6.00;;;9.90;99.90;;;;;;5075657;28;20435;-64
2024/02/05 06:20:51;;;;;;;24.10;6.07;;;10.00;99.90;;;;;;5076029;28;20465;-64
2024/02/05 06:23:17;;;;;;;17.05;6.05;;;10.00;99.90;;;;;;5076002;28;20510;-64
2024/02/05 06:25:44;;;;;;;12.73;4.77;;;10.00;99.90;;;;;;5075082;28;20208;-64
2024/02/05 06:28:13;;;;;;;15.13;5.87;;;10.00;99.90;;;;;;5074792;28;20964;-63
2024/02/05 06:30:45;;;;;;;18.40;6.47;;;10.00;99.90;;;;;;5074637;28;20788;-64
2024/02/05 06:33:12;;;;;;;12.73;6.03;;;10.10;99.90;;;;;;5074883;28;20468;-63
2024/02/05 06:35:39;;;;;;;20.47;7.03;;;10.00;99.90;;;;;;5073913;28;20461;-63
2024/02/05 06:38:06;;;;;;;18.63;6.53;;;10.00;99.90;;;;;;5074462;28;20447;-63
2024/02/05 06:40:32;;;;;;;21.07;7.10;;;10.00;99.90;;;;;;5075082;28;20443;-62
2024/02/05 06:43:00;;;;;;;16.33;5.45;;;9.90;99.90;;;;;;5075048;28;20461;-64
2024/02/05 06:45:26;;;;;;;19.83;6.40;;;9.90;99.90;;;;;;5074693;28;20203;-63
2024/02/05 06:47:55;;;;;;;18.80;6.53;;;9.90;99.90;;;;;;5074928;28;20450;-63
2024/02/05 06:50:22;;;;;;;16.13;6.80;;;9.90;99.90;;;;;;5076051;28;20957;-64
2024/02/05 06:52:49;;;;;;;22.53;6.77;;;9.90;99.90;;;;;;5075676;28;20513;-62
2024/02/05 06:55:16;;;;;;;13.60;6.97;;;9.90;99.90;;;;;;5074838;28;20429;-63
2024/02/05 06:57:42;;;;;;;20.23;7.57;;;9.90;99.90;;;;;;5074951;28;20439;-64
2024/02/05 07:00:10;;;;;;;14.10;6.30;;;9.80;99.90;;;;;;5074494;28;20953;-64
2024/02/05 07:02:37;;;;;;;19.65;7.63;;;9.80;99.90;;;;;;5074146;28;20462;-63
2024/02/05 07:05:06;;;;;;;24.93;7.77;;;9.80;99.90;;;;;;5074039;28;20577;-63
2024/02/05 07:07:33;;;;;;;20.87;8.40;;;9.80;99.90;;;;;;5074369;28;20467;-63
2024/02/05 07:10:00;;;;;;;16.10;6.17;;;9.80;99.90;;;;;;5074820;28;20439;-63
2024/02/05 07:12:26;;;;;;;19.92;8.07;;;9.90;99.90;;;;;;5073488;28;20536;-64
2024/02/05 07:14:53;;;;;;;16.35;6.20;;;9.80;99.90;;;;;;5073683;28;20208;-64
2024/02/05 07:17:31;;;;;;;27.37;9.13;;;9.80;99.90;;;;;;5073309;28;20671;-64
2024/02/05 07:19:59;;;;;;;13.70;6.77;;;9.90;99.90;;;;;;5073389;28;20476;-64
2024/02/05 07:22:27;;;;;;;31.53;8.67;;;9.90;99.90;;;;;;5073431;28;20976;-64
2024/02/05 07:24:54;;;;;;;18.33;6.53;;;9.90;99.90;;;;;;5073361;28;20443;-63
2024/02/05 07:27:23;;;;;;;20.10;7.60;;;9.90;99.90;;;;;;5073323;28;20443;-64
2024/02/05 07:29:49;;;;;;;25.33;7.60;;;9.90;99.90;;;;;;5073314;28;20443;-64
2024/02/05 07:32:16;;;;;;;14.70;6.35;;;9.90;99.90;;;;;;5073223;28;20857;-62
2024/02/05 07:34:43;;;;;;;14.60;5.90;;;9.90;99.90;;;;;;5073130;28;20693;-63
2024/02/05 07:37:10;;;;;;;21.52;7.68;;;9.80;99.90;;;;;;5073596;28;20438;-72
2024/02/05 07:39:39;;;;;;;18.17;7.47;;;9.80;99.90;;;;;;5073732;28;20208;-63
2024/02/05 07:42:06;;;;;;;10.95;5.82;;;9.80;99.90;;;;;;5072868;28;20778;-63
2024/02/05 07:44:33;;;;;;;15.10;6.93;;;9.90;99.90;;;;;;5073433;28;20205;-63
2024/02/05 07:47:00;;;;;;;18.00;6.80;;;9.90;99.90;;;;;;5073391;28;20228;-65
2024/02/05 07:49:27;;;;;;;17.70;7.13;;;9.80;99.90;;;;;;5073409;28;20924;-63
2024/02/05 07:51:55;;;;;;;14.33;6.37;;;9.80;99.90;;;;;;5073702;28;20509;-64
2024/02/05 07:54:24;;;;;;;13.15;4.95;;;9.80;99.90;;;;;;5073678;28;20511;-64
2024/02/05 07:56:52;;;;;;;20.45;7.75;;;9.80;99.90;;;;;;5073779;28;20227;-64
2024/02/05 07:59:19;;;;;;;18.17;6.15;;;9.80;99.90;;;;;;5073570;28;20296;-63
2024/02/05 08:01:46;;;;;;;14.77;6.28;;;9.80;99.90;;;;;;5072886;28;20225;-64
2024/02/05 08:04:13;;;;;;;24.70;6.03;;;9.80;99.90;;;;;;5073196;28;20284;-63
2024/02/05 08:06:40;;;;;;;20.90;7.20;;;9.80;99.90;;;;;;5072713;28;20446;-63
2024/02/05 08:09:07;;;;;;;16.10;6.27;;;9.80;99.90;;;;;;5073004;28;20446;-63
2024/02/05 08:11:33;;;;;;;24.60;5.37;;;9.80;99.90;;;;;;5072588;28;21067;-65
2024/02/05 08:14:02;;;;;;;19.60;7.40;;;9.90;99.90;;;;;;5073226;28;20914;-64
2024/02/05 08:16:28;;;;;;;17.50;6.30;;;9.90;99.90;;;;;;5072627;28;20529;-64
2024/02/05 08:18:55;;;;;;;14.40;5.47;;;9.90;99.90;;;;;;5073016;28;20447;-63
2024/02/05 08:21:22;;;;;;;12.33;5.10;;;10.00;99.90;;;;;;5072898;28;20228;-63
2024/02/05 08:23:51;;;;;;;13.90;7.60;;;10.00;99.90;;;;;;5072621;28;20933;-64
2024/02/05 08:26:18;;;;;;;19.20;6.50;;;10.00;99.90;;;;;;5072857;28;20451;-62
2024/02/05 08:28:45;;;;;;;16.90;6.70;;;10.00;99.90;;;;;;5073048;28;20440;-63
2024/02/05 08:31:13;;;;;;;18.45;5.65;;;10.00;99.90;;;;;;5072470;28;20820;-63
2024/02/05 08:33:39;;;;;;;16.83;6.73;;;10.00;99.90;;;;;;5073174;28;20331;-64
2024/02/05 08:36:07;;;;;;;19.05;6.72;;;10.00;99.90;;;;;;5072481;28;20443;-63
2024/02/05 08:38:34;;;;;;;19.83;6.40;;;10.00;99.90;;;;;;5073029;28;20197;-65
2024/02/05 08:41:01;;;;;;;20.35;5.70;;;10.00;99.90;;;;;;5072960;28;20489;-63
2024/02/05 08:43:27;;;;;;;21.40;5.77;;;10.00;99.90;;;;;;5073171;28;20241;-64
2024/02/05 08:45:54;;;;;;;16.70;5.37;;;10.00;99.90;;;;;;5073160;28;20447;-63
2024/02/05 08:48:22;;;;;;;16.07;5.80;;;10.00;99.90;;;;;;5073144;28;20447;-63
2024/02/05 08:50:49;;;;;;;15.13;5.63;;;10.10;99.90;;;;;;5073011;28;20800;-63
2024/02/05 08:53:16;;;;;;;15.90;5.70;;;10.10;99.90;;;;;;5072553;28;21004;-64
2024/02/05 08:55:42;;;;;;;15.20;5.40;;;10.10;99.90;;;;;;5076465;28;20553;-64
2024/02/05 08:58:09;;;;;;;18.37;5.90;;;10.10;99.90;;;;;;5080638;28;20443;-63
2024/02/05 09:00:36;;;;;;;14.87;5.87;;;10.10;99.90;;;;;;5077264;28;20767;-65
2024/02/05 09:03:03;;;;;;;15.60;5.63;;;10.10;99.90;;;;;;5076431;28;20461;-63
2024/02/05 09:05:32;;;;;;;16.70;6.00;;;10.10;99.90;;;;;;5076659;28;20446;-64
2024/02/05 09:07:59;;;;;;;14.77;5.03;;;10.10;99.90;;;;;;5076813;28;20479;-62
2024/02/05 09:10:26;;;;;;;9.87;4.93;;;10.20;99.90;;;;;;5076815;28;20201;-64
2024/02/05 09:12:53;;;;;;;13.60;4.70;;;10.10;99.90;;;;;;5076364;28;20514;-63
2024/02/05 09:15:21;;;;;;;18.13;5.70;;;10.20;99.90;;;;;;5075971;28;20435;-63
2024/02/05 09:17:47;;;;;;;16.70;5.63;;;10.20;99.90;;;;;;5076203;28;20439;-64
2024/02/05 09:20:14;;;;;;;16.53;6.63;;;10.20;99.90;;;;;;5076392;28;20446;-64
2024/02/05 09:22:46;;;;;;;12.65;4.75;;;10.20;99.90;;;;;;5076535;28;20459;-63
2024/02/05 09:25:13;;;;;;;10.70;4.25;;;10.20;99.90;;;;;;5077784;28;20189;-64
2024/02/05 09:27:40;;;;;;;12.30;5.30;;;10.20;99.90;;;;;;5078391;28;20204;-64
2024/02/05 09:30:08;;;;;;;14.13;5.53;;;10.30;99.90;;;;;;5076917;28;20439;-63
2024/02/05 09:32:34;;;;;;;15.73;6.03;;;10.30;99.90;;;;;;5075959;28;20463;-63
2024/02/05 09:35:01;;;;;;;17.60;5.60;;;10.30;99.90;;;;;;5076092;28;20443;-63
2024/02/05 09:37:28;;;;;;;14.60;5.37;;;10.30;99.90;;;;;;5075897;28;20439;-63
2024/02/05 09:39:56;;;;;;;20.40;6.03;;;10.20;99.90;;;;;;5076016;28;20439;-63
2024/02/05 09:42:23;;;;;;;17.33;5.53;;;10.20;99.90;;;;;;5075647;28;20471;-62
2024/02/05 09:44:51;;;;;;;15.27;5.30;;;10.20;99.90;;;;;;5076328;28;20434;-62
2024/02/05 09:47:20;;;;;;;12.73;4.40;;;10.20;99.90;;;;;;5075784;28;20446;-63
2024/02/05 09:49:48;;;;;;;22.33;6.30;;;10.20;99.90;;;;;;5075822;28;20457;-64
2024/02/05 09:52:16;;;;;;;13.53;5.13;;;10.20;99.90;;;;;;5075734;28;20455;-63
2024/02/05 09:54:43;;;;;;;15.67;5.50;;;10.20;99.90;;;;;;5075617;28;20478;-63
2024/02/05 09:57:12;;;;;;;9.20;4.83;;;10.20;99.90;;;;;;5076542;28;20446;-63
2024/02/05 09:59:40;;;;;;;15.83;6.07;;;10.20;99.90;;;;;;5075906;28;20454;-63
2024/02/05 10:02:08;;;;;;;14.23;6.10;;;10.20;99.90;;;;;;5075991;28;20467;-64
2024/02/05 10:04:41;;;;;;;14.63;5.40;;;10.20;99.90;;;;;;5075733;28;20489;-63
2024/02/05 10:07:12;;;;;;;23.90;6.40;;;10.20;99.90;;;;;;5075874;28;20457;-64
2024/02/05 10:09:40;;;;;;;18.10;7.47;;;10.30;99.90;;;;;;5075271;28;20484;-63
2024/02/05 10:12:12;;;;;;;18.13;5.73;;;10.30;99.90;;;;;;5074953;28;20479;-64
2024/02/05 10:14:38;;;;;;;13.43;5.63;;;10.30;99.90;;;;;;5075919;28;20463;-63
2024/02/05 10:17:05;;;;;;;15.73;6.03;;;10.30;99.90;;;;;;5074991;28;20446;-64
2024/02/05 10:19:33;;;;;;;13.47;5.80;;;10.30;99.90;;;;;;5075093;28;20439;-63
2024/02/05 10:22:00;;;;;;;26.77;6.47;;;10.30;99.90;;;;;;5074785;28;20558;-63
2024/02/05 10:24:27;;;;;;;12.90;5.37;;;10.30;99.90;;;;;;5075020;28;20526;-64
2024/02/05 10:26:54;;;;;;;12.37;4.73;;;10.30;99.90;;;;;;5075031;28;20450;-64
2024/02/05 10:29:23;;;;;;;13.70;4.93;;;10.30;99.90;;;;;;5075116;28;20441;-65
2024/02/05 10:31:53;;;;;;;16.57;6.23;;;10.30;99.90;;;;;;5074882;28;20463;-63
2024/02/05 10:34:22;;;;;;;17.87;6.27;;;10.30;99.90;;;;;;5075573;28;20501;-65
2024/02/05 10:36:50;;;;;;;23.37;5.83;;;10.30;99.90;;;;;;5074968;28;20447;-65
2024/02/05 10:39:22;;;;;;;16.83;6.50;;;10.30;99.90;;;;;;5074169;28;20530;-63
2024/02/05 10:41:49;;;;;;;16.10;6.00;;;10.30;99.90;;;;;;5075055;28;20493;-64
2024/02/05 10:44:16;;;;;;;18.63;7.17;;;10.30;99.90;;;;;;5074287;28;20462;-63
2024/02/05 10:46:45;;;;;;;12.40;5.50;;;10.30;99.90;;;;;;5074095;28;20439;-65
2024/02/05 10:49:12;;;;;;;15.10;5.47;;;10.30;99.90;;;;;;5074632;28;20443;-65
2024/02/05 10:51:40;;;;;;;21.03;6.30;;;10.30;99.90;;;;;;5074115;28;20459;-65
2024/02/05 10:54:07;;;;;;;12.70;5.27;;;10.30;99.90;;;;;;5074186;28;20528;-63
2024/02/05 10:56:35;;;;;;;12.30;5.10;;;10.40;99.90;;;;;;5074253;28;20458;-64
2024/02/05 10:59:03;;;;;;;15.47;6.40;;;10.40;99.90;;;;;;5074102;28;20937;-63
2024/02/05 11:01:36;;;;;;;16.03;6.33;;;10.40;99.90;;;;;;5074149;28;20463;-64
2024/02/05 11:04:05;;;;;;;18.00;5.70;;;10.30;99.90;;;;;;5074881;28;20421;-63
2024/02/05 11:06:37;;;;;;;16.13;5.40;;;10.30;99.90;;;;;;5073725;28;20941;-64
2024/02/05 11:09:08;;;;;;;12.03;5.23;;;10.40;99.90;;;;;;5074185;28;20428;-64
2024/02/05 11:11:37;;;;;;;12.63;6.50;;;10.30;99.90;;;;;;5073793;28;20977;-63
2024/02/05 11:14:08;;;;;;;16.07;6.00;;;10.30;99.90;;;;;;5073744;28;20856;-64
2024/02/05 11:16:37;;;;;;;17.50;6.87;;;10.40;99.90;;;;;;5074349;28;20416;-64
2024/02/05 11:19:07;;;;;;;11.27;5.20;;;10.30;99.90;;;;;;5074335;28;20846;-64
2024/02/05 11:21:42;;;;;;;16.93;5.90;;;10.30;99.90;;;;;;5073298;28;20512;-63
2024/02/05 11:24:11;;;;;;;13.70;5.30;;;10.30;99.90;;;;;;5073432;28;20774;-65
2024/02/05 11:26:39;;;;;;;18.30;6.17;;;10.30;99.90;;;;;;5073763;28;20443;-64
2024/02/05 11:29:06;;;;;;;9.83;4.53;;;10.40;99.90;;;;;;5073485;28;20479;-65
2024/02/05 11:31:36;;;;;;;12.10;5.13;;;10.40;99.90;;;;;;5073721;28;20469;-64
2024/02/05 11:34:06;;;;;;;9.67;5.13;;;10.40;99.90;;;;;;5074215;28;21004;-65
2024/02/05 11:36:33;;;;;;;16.17;5.87;;;10.40;99.90;;;;;;5073291;28;20483;-64
2024/02/05 11:39:04;;;;;;;11.93;4.90;;;10.30;99.90;;;;;;5073861;28;20432;-65
2024/02/05 11:41:31;;;;;;;25.10;5.77;;;10.40;99.90;;;;;;5073853;28;20460;-64
2024/02/05 11:44:05;;;;;;;17.73;5.90;;;10.40;99.90;;;;;;5073787;28;20431;-64
2024/02/05 11:46:32;;;;;;;17.00;6.80;;;10.40;99.90;;;;;;5073514;28;20933;-63
2024/02/05 11:48:59;;;;;;;20.43;6.00;;;10.40;99.90;;;;;;5073566;28;20443;-64
2024/02/05 11:51:27;;;;;;;18.57;6.10;;;10.40;99.90;;;;;;5073494;28;20464;-64
2024/02/05 11:53:55;;;;;;;15.40;4.30;;;10.40;99.90;;;;;;5073672;28;20614;-64
2024/02/05 11:56:22;;;;;;;18.37;5.30;;;10.40;99.90;;;;;;5074249;28;20439;-64
2024/02/05 11:58:49;;;;;;;18.47;6.97;;;10.40;99.90;;;;;;5074169;28;20435;-64
2024/02/05 12:01:17;;;;;;;13.70;5.57;;;10.40;99.90;;;;;;5074843;28;20495;-63
2024/02/05 12:03:45;;;;;;;21.13;6.37;;;10.50;99.90;;;;;;5075536;28;20443;-63
2024/02/05 12:06:15;;;;;;;17.37;4.10;;;10.50;99.90;;;;;;5074971;28;20496;-63
2024/02/05 12:08:44;;;;;;;16.63;4.97;;;10.50;99.90;;;;;;5075086;28;20444;-63
2024/02/05 12:11:11;;;;;;;13.13;5.50;;;10.50;99.90;;;;;;5073646;28;20481;-62
2024/02/05 12:13:39;;;;;;;17.97;5.60;;;10.50;99.90;;;;;;5073528;28;20460;-64
2024/02/05 12:16:13;;;;;;;9.93;4.87;;;10.60;99.90;;;;;;5073876;28;20439;-62
2024/02/05 12:18:39;;;;;;;15.60;5.27;;;10.60;99.90;;;;;;5073023;28;20940;-64
2024/02/05 12:21:07;;;;;;;11.40;4.67;;;10.70;99.90;;;;;;5073774;28;20463;-64
2024/02/05 12:23:35;;;;;;;13.50;5.43;;;10.70;99.90;;;;;;5073343;28;20545;-63
2024/02/05 12:26:03;;;;;;;19.00;5.47;;;10.70;99.90;;;;;;5072932;28;20438;-63
2024/02/05 12:28:31;;;;;;;13.40;5.13;;;10.70;99.90;;;;;;5073074;28;20443;-64
2024/02/05 12:30:58;;;;;;;14.20;5.60;;;10.80;99.90;;;;;;5073170;28;20440;-64
2024/02/05 12:33:25;;;;;;;12.53;5.10;;;10.80;99.90;;;;;;5074664;28;20454;-66
2024/02/05 12:36:02;;;;;;;17.10;6.30;;;10.80;99.90;;;;;;5077299;28;20454;-64
2024/02/05 12:38:29;;;;;;;19.07;5.20;;;10.90;99.90;;;;;;5077754;28;20442;-63
2024/02/05 12:40:57;;;;;;;18.47;5.90;;;10.90;99.90;;;;;;5076956;28;20447;-63
2024/02/05 12:43:26;;;;;;;20.83;5.80;;;10.90;99.90;;;;;;5077066;28;20986;-65
2024/02/05 12:45:53;;;;;;;12.80;5.70;;;11.00;99.90;;;;;;5077156;28;20448;-63
2024/02/05 12:48:22;;;;;;;11.00;5.10;;;11.00;99.90;;;;;;5076249;28;20960;-64